sensor_id;sensor_type;location;lat;lon;timestamp;pressure;altitude;pressure_sealevel;temperature;humidity
73220;BME280;61434;43.538;-5.688;2022-12-07T00:01:37;101562.06;;;12.83;79.89
73220;BME280;61434;43.538;-5.688;2022-12-07T00:04:05;101558.25;;;12.86;79.80
73220;BME280;61434;43.538;-5.688;2022-12-07T00:06:37;101561.84;;;12.75;80.69
73220;BME280;61434;43.538;-5.688;2022-12-07T00:09:04;101557.03;;;12.79;80.73
73220;BME280;61434;43.538;-5.688;2022-12-07T00:11:30;101557.63;;;12.82;80.59
73220;BME280;61434;43.538;-5.688;2022-12-07T00:13:58;101561.94;;;12.85;80.06
73220;BME280;61434;43.538;-5.688;2022-12-07T00:16:30;101556.28;;;12.88;79.08
73220;BME280;61434;43.538;-5.688;2022-12-07T00:18:56;101552.00;;;12.86;79.43
73220;BME280;61434;43.538;-5.688;2022-12-07T00:21:24;101549.66;;;12.81;79.78
73220;BME280;61434;43.538;-5.688;2022-12-07T00:23:51;101555.19;;;12.68;80.03
73220;BME280;61434;43.538;-5.688;2022-12-07T00:26:19;101548.81;;;12.69;80.39
73220;BME280;61434;43.538;-5.688;2022-12-07T00:28:47;101552.88;;;12.64;80.22
73220;BME280;61434;43.538;-5.688;2022-12-07T00:31:13;101553.25;;;12.70;79.70
73220;BME280;61434;43.538;-5.688;2022-12-07T00:33:38;101542.81;;;12.66;79.72
73220;BME280;61434;43.538;-5.688;2022-12-07T00:36:09;101537.66;;;12.63;79.74
73220;BME280;61434;43.538;-5.688;2022-12-07T00:38:36;101540.22;;;12.64;79.39
73220;BME280;61434;43.538;-5.688;2022-12-07T00:41:09;101531.88;;;12.67;79.76
73220;BME280;61434;43.538;-5.688;2022-12-07T00:43:35;101535.78;;;12.63;79.72
73220;BME280;61434;43.538;-5.688;2022-12-07T00:46:01;101527.69;;;12.63;79.82
73220;BME280;61434;43.538;-5.688;2022-12-07T00:48:26;101519.59;;;12.52;80.21
73220;BME280;61434;43.538;-5.688;2022-12-07T00:50:52;101518.97;;;12.48;80.29
73220;BME280;61434;43.538;-5.688;2022-12-07T00:53:17;101514.34;;;12.50;80.35
73220;BME280;61434;43.538;-5.688;2022-12-07T00:55:43;101506.84;;;12.43;80.17
73220;BME280;61434;43.538;-5.688;2022-12-07T00:58:09;101506.34;;;12.49;80.29
73220;BME280;61434;43.538;-5.688;2022-12-07T01:00:36;101506.69;;;12.44;79.87
73220;BME280;61434;43.538;-5.688;2022-12-07T01:03:03;101499.22;;;12.48;79.46
73220;BME280;61434;43.538;-5.688;2022-12-07T01:05:28;101478.81;;;12.44;80.02
73220;BME280;61434;43.538;-5.688;2022-12-07T01:07:54;101498.13;;;12.39;80.38
73220;BME280;61434;43.538;-5.688;2022-12-07T01:10:19;101483.97;;;12.36;79.82
73220;BME280;61434;43.538;-5.688;2022-12-07T01:12:45;101494.78;;;12.36;80.22
73220;BME280;61434;43.538;-5.688;2022-12-07T01:15:10;101482.91;;;12.38;80.46
73220;BME280;61434;43.538;-5.688;2022-12-07T01:17:36;101479.44;;;12.47;79.70
73220;BME280;61434;43.538;-5.688;2022-12-07T01:20:02;101488.16;;;12.40;79.96
73220;BME280;61434;43.538;-5.688;2022-12-07T01:22:28;101476.88;;;12.46;80.01
73220;BME280;61434;43.538;-5.688;2022-12-07T01:24:53;101475.50;;;12.40;79.77
73220;BME280;61434;43.538;-5.688;2022-12-07T01:27:20;101466.56;;;12.40;79.92
73220;BME280;61434;43.538;-5.688;2022-12-07T01:29:45;101472.56;;;12.43;79.30
73220;BME280;61434;43.538;-5.688;2022-12-07T01:32:11;101470.97;;;12.41;79.35
73220;BME280;61434;43.538;-5.688;2022-12-07T01:34:37;101463.59;;;12.43;79.71
73220;BME280;61434;43.538;-5.688;2022-12-07T01:37:02;101462.00;;;12.40;79.20
73220;BME280;61434;43.538;-5.688;2022-12-07T01:39:28;101461.41;;;12.37;79.35
73220;BME280;61434;43.538;-5.688;2022-12-07T01:41:53;101464.13;;;12.37;79.66
73220;BME280;61434;43.538;-5.688;2022-12-07T01:44:27;101469.03;;;12.31;79.60
73220;BME280;61434;43.538;-5.688;2022-12-07T01:46:59;101475.03;;;12.35;79.54
73220;BME280;61434;43.538;-5.688;2022-12-07T01:49:36;101478.38;;;12.27;79.55
73220;BME280;61434;43.538;-5.688;2022-12-07T01:52:25;101472.59;;;12.32;79.19
73220;BME280;61434;43.538;-5.688;2022-12-07T01:54:55;101460.44;;;12.38;79.53
73220;BME280;61434;43.538;-5.688;2022-12-07T01:57:22;101470.25;;;12.39;79.15
73220;BME280;61434;43.538;-5.688;2022-12-07T01:59:49;101462.38;;;12.36;79.62
73220;BME280;61434;43.538;-5.688;2022-12-07T02:02:36;101463.63;;;12.31;79.30
73220;BME280;61434;43.538;-5.688;2022-12-07T02:05:04;101461.66;;;12.33;79.57
73220;BME280;61434;43.538;-5.688;2022-12-07T02:07:31;101458.59;;;12.27;79.71
73220;BME280;61434;43.538;-5.688;2022-12-07T02:09:57;101470.25;;;12.27;79.76
73220;BME280;61434;43.538;-5.688;2022-12-07T02:12:36;101457.09;;;12.34;79.35
73220;BME280;61434;43.538;-5.688;2022-12-07T02:15:02;101458.72;;;12.37;79.12
73220;BME280;61434;43.538;-5.688;2022-12-07T02:23:29;101460.44;;;12.26;79.11
73220;BME280;61434;43.538;-5.688;2022-12-07T02:29:31;101461.06;;;12.19;78.97
73220;BME280;61434;43.538;-5.688;2022-12-07T02:32:13;101470.38;;;12.26;78.76
73220;BME280;61434;43.538;-5.688;2022-12-07T02:34:48;101465.69;;;12.17;79.11
73220;BME280;61434;43.538;-5.688;2022-12-07T02:37:32;101479.09;;;12.18;79.22
73220;BME280;61434;43.538;-5.688;2022-12-07T02:42:47;101469.03;;;12.20;78.59
73220;BME280;61434;43.538;-5.688;2022-12-07T02:45:17;101466.69;;;12.27;78.92
73220;BME280;61434;43.538;-5.688;2022-12-07T02:47:49;101468.03;;;12.32;78.26
73220;BME280;61434;43.538;-5.688;2022-12-07T02:50:18;101463.38;;;12.35;78.30
73220;BME280;61434;43.538;-5.688;2022-12-07T02:52:44;101454.28;;;12.36;77.96
73220;BME280;61434;43.538;-5.688;2022-12-07T02:55:11;101466.06;;;12.35;78.66
73220;BME280;61434;43.538;-5.688;2022-12-07T02:58:01;101464.59;;;12.30;78.74
73220;BME280;61434;43.538;-5.688;2022-12-07T03:00:36;101461.78;;;12.32;78.62
73220;BME280;61434;43.538;-5.688;2022-12-07T03:03:10;101459.66;;;12.36;78.25
73220;BME280;61434;43.538;-5.688;2022-12-07T03:11:12;101460.44;;;12.38;78.26
73220;BME280;61434;43.538;-5.688;2022-12-07T03:14:06;101457.25;;;12.32;78.45
73220;BME280;61434;43.538;-5.688;2022-12-07T03:16:44;101452.81;;;12.31;78.14
73220;BME280;61434;43.538;-5.688;2022-12-07T03:19:17;101446.81;;;12.28;78.48
73220;BME280;61434;43.538;-5.688;2022-12-07T03:21:55;101460.53;;;12.25;78.10
73220;BME280;61434;43.538;-5.688;2022-12-07T03:24:25;101466.31;;;12.20;78.36
73220;BME280;61434;43.538;-5.688;2022-12-07T03:26:56;101457.88;;;12.14;78.15
73220;BME280;61434;43.538;-5.688;2022-12-07T03:29:33;101451.34;;;12.16;78.47
73220;BME280;61434;43.538;-5.688;2022-12-07T03:32:08;101452.06;;;12.07;78.71
73220;BME280;61434;43.538;-5.688;2022-12-07T03:42:22;101438.84;;;12.04;78.31
73220;BME280;61434;43.538;-5.688;2022-12-07T03:44:48;101447.56;;;12.07;78.08
73220;BME280;61434;43.538;-5.688;2022-12-07T03:52:42;101439.81;;;12.03;78.39
73220;BME280;61434;43.538;-5.688;2022-12-07T03:55:32;101437.97;;;12.03;78.58
73220;BME280;61434;43.538;-5.688;2022-12-07T03:58:08;101441.78;;;12.01;78.87
73220;BME280;61434;43.538;-5.688;2022-12-07T04:00:36;101438.44;;;11.97;78.47
73220;BME280;61434;43.538;-5.688;2022-12-07T04:03:02;101422.88;;;12.01;78.35
73220;BME280;61434;43.538;-5.688;2022-12-07T04:05:27;101429.03;;;12.03;78.55
73220;BME280;61434;43.538;-5.688;2022-12-07T04:07:53;101429.41;;;11.98;78.38
73220;BME280;61434;43.538;-5.688;2022-12-07T04:10:19;101433.81;;;11.99;78.66
73220;BME280;61434;43.538;-5.688;2022-12-07T04:12:44;101422.75;;;12.02;78.58
73220;BME280;61434;43.538;-5.688;2022-12-07T04:15:10;101416.97;;;12.07;78.05
73220;BME280;61434;43.538;-5.688;2022-12-07T04:17:35;101415.03;;;12.09;78.23
73220;BME280;61434;43.538;-5.688;2022-12-07T04:20:01;101415.25;;;12.06;78.01
73220;BME280;61434;43.538;-5.688;2022-12-07T04:22:27;101412.44;;;11.96;78.48
73220;BME280;61434;43.538;-5.688;2022-12-07T04:24:52;101421.78;;;12.03;78.19
73220;BME280;61434;43.538;-5.688;2022-12-07T04:27:18;101429.50;;;11.97;78.67
73220;BME280;61434;43.538;-5.688;2022-12-07T04:29:43;101434.19;;;11.95;78.67
73220;BME280;61434;43.538;-5.688;2022-12-07T04:32:09;101429.50;;;11.97;78.43
73220;BME280;61434;43.538;-5.688;2022-12-07T04:34:34;101417.84;;;11.96;78.85
73220;BME280;61434;43.538;-5.688;2022-12-07T04:37:00;101414.16;;;11.97;78.59
73220;BME280;61434;43.538;-5.688;2022-12-07T04:39:28;101419.09;;;12.03;78.53
73220;BME280;61434;43.538;-5.688;2022-12-07T04:41:54;101415.63;;;12.01;78.70
73220;BME280;61434;43.538;-5.688;2022-12-07T04:44:20;101414.28;;;12.07;77.90
73220;BME280;61434;43.538;-5.688;2022-12-07T04:46:47;101409.63;;;12.09;78.29
73220;BME280;61434;43.538;-5.688;2022-12-07T04:49:13;101410.13;;;12.03;78.43
73220;BME280;61434;43.538;-5.688;2022-12-07T04:51:39;101413.91;;;12.00;78.31
73220;BME280;61434;43.538;-5.688;2022-12-07T04:54:05;101403.84;;;12.02;78.56
73220;BME280;61434;43.538;-5.688;2022-12-07T04:56:31;101403.59;;;12.05;78.29
73220;BME280;61434;43.538;-5.688;2022-12-07T04:58:57;101405.44;;;12.05;78.11
73220;BME280;61434;43.538;-5.688;2022-12-07T05:01:23;101398.72;;;11.99;78.59
73220;BME280;61434;43.538;-5.688;2022-12-07T05:03:49;101397.97;;;11.97;78.06
73220;BME280;61434;43.538;-5.688;2022-12-07T05:06:15;101402.50;;;11.97;78.75
73220;BME280;61434;43.538;-5.688;2022-12-07T05:08:41;101413.94;;;11.89;78.63
73220;BME280;61434;43.538;-5.688;2022-12-07T05:11:08;101399.81;;;11.86;78.92
73220;BME280;61434;43.538;-5.688;2022-12-07T05:13:35;101415.50;;;11.80;79.22
73220;BME280;61434;43.538;-5.688;2022-12-07T05:16:01;101411.94;;;11.80;78.82
73220;BME280;61434;43.538;-5.688;2022-12-07T05:18:26;101416.56;;;11.78;78.91
73220;BME280;61434;43.538;-5.688;2022-12-07T05:20:52;101407.19;;;11.84;79.01
73220;BME280;61434;43.538;-5.688;2022-12-07T05:23:18;101398.72;;;11.88;78.83
73220;BME280;61434;43.538;-5.688;2022-12-07T05:25:44;101408.28;;;11.92;78.28
73220;BME280;61434;43.538;-5.688;2022-12-07T05:28:10;101403.25;;;11.88;78.75
73220;BME280;61434;43.538;-5.688;2022-12-07T05:30:35;101408.78;;;11.86;78.67
73220;BME280;61434;43.538;-5.688;2022-12-07T05:33:01;101399.94;;;11.84;78.72
73220;BME280;61434;43.538;-5.688;2022-12-07T05:35:28;101394.66;;;11.94;78.70
73220;BME280;61434;43.538;-5.688;2022-12-07T05:37:53;101390.63;;;11.88;78.70
73220;BME280;61434;43.538;-5.688;2022-12-07T05:40:19;101390.88;;;11.85;79.06
73220;BME280;61434;43.538;-5.688;2022-12-07T05:42:44;101384.97;;;11.91;78.69
73220;BME280;61434;43.538;-5.688;2022-12-07T05:45:10;101388.16;;;11.96;78.24
73220;BME280;61434;43.538;-5.688;2022-12-07T05:47:37;101388.16;;;11.96;78.70
73220;BME280;61434;43.538;-5.688;2022-12-07T05:50:04;101383.59;;;11.97;78.42
73220;BME280;61434;43.538;-5.688;2022-12-07T05:52:30;101380.06;;;11.96;78.05
73220;BME280;61434;43.538;-5.688;2022-12-07T05:54:55;101384.72;;;11.94;78.00
73220;BME280;61434;43.538;-5.688;2022-12-07T05:57:21;101379.31;;;12.05;78.20
73220;BME280;61434;43.538;-5.688;2022-12-07T05:59:46;101379.94;;;11.98;78.02
73220;BME280;61434;43.538;-5.688;2022-12-07T06:02:14;101379.19;;;11.96;78.37
73220;BME280;61434;43.538;-5.688;2022-12-07T06:04:43;101378.34;;;11.95;78.18
73220;BME280;61434;43.538;-5.688;2022-12-07T06:07:09;101389.88;;;11.86;78.82
73220;BME280;61434;43.538;-5.688;2022-12-07T06:09:35;101376.00;;;11.91;78.69
73220;BME280;61434;43.538;-5.688;2022-12-07T06:12:01;101375.88;;;11.92;78.99
73220;BME280;61434;43.538;-5.688;2022-12-07T06:14:46;101374.66;;;11.85;79.30
73220;BME280;61434;43.538;-5.688;2022-12-07T06:17:11;101375.03;;;11.92;78.72
73220;BME280;61434;43.538;-5.688;2022-12-07T06:19:38;101381.41;;;11.91;78.85
73220;BME280;61434;43.538;-5.688;2022-12-07T06:22:04;101367.91;;;11.91;79.40
73220;BME280;61434;43.538;-5.688;2022-12-07T06:24:31;101372.19;;;11.82;79.43
73220;BME280;61434;43.538;-5.688;2022-12-07T06:26:58;101367.28;;;11.87;79.25
73220;BME280;61434;43.538;-5.688;2022-12-07T06:29:24;101364.00;;;11.84;79.30
73220;BME280;61434;43.538;-5.688;2022-12-07T06:31:49;101361.50;;;11.80;79.44
73220;BME280;61434;43.538;-5.688;2022-12-07T06:34:17;101362.50;;;11.91;79.11
73220;BME280;61434;43.538;-5.688;2022-12-07T06:36:43;101365.34;;;11.89;79.20
73220;BME280;61434;43.538;-5.688;2022-12-07T06:39:09;101361.41;;;11.93;79.23
73220;BME280;61434;43.538;-5.688;2022-12-07T06:41:38;101366.91;;;11.92;79.31
73220;BME280;61434;43.538;-5.688;2022-12-07T06:44:05;101359.19;;;11.87;79.55
73220;BME280;61434;43.538;-5.688;2022-12-07T06:46:31;101361.03;;;11.87;79.56
73220;BME280;61434;43.538;-5.688;2022-12-07T06:48:56;101360.94;;;11.88;79.50
73220;BME280;61434;43.538;-5.688;2022-12-07T06:51:22;101363.50;;;11.90;79.68
73220;BME280;61434;43.538;-5.688;2022-12-07T06:53:47;101366.34;;;11.88;79.76
73220;BME280;61434;43.538;-5.688;2022-12-07T06:56:13;101358.72;;;11.82;80.00
73220;BME280;61434;43.538;-5.688;2022-12-07T06:58:39;101367.44;;;11.86;79.74
73220;BME280;61434;43.538;-5.688;2022-12-07T07:01:12;101371.44;;;11.69;80.42
73220;BME280;61434;43.538;-5.688;2022-12-07T07:03:38;101362.25;;;11.82;80.44
73220;BME280;61434;43.538;-5.688;2022-12-07T07:06:05;101365.72;;;11.85;80.17
73220;BME280;61434;43.538;-5.688;2022-12-07T07:08:31;101367.41;;;11.97;79.25
73220;BME280;61434;43.538;-5.688;2022-12-07T07:10:56;101371.19;;;11.72;80.28
73220;BME280;61434;43.538;-5.688;2022-12-07T07:13:22;101366.56;;;11.74;80.58
73220;BME280;61434;43.538;-5.688;2022-12-07T07:15:47;101375.72;;;11.71;80.05
73220;BME280;61434;43.538;-5.688;2022-12-07T07:18:13;101370.25;;;11.84;79.98
73220;BME280;61434;43.538;-5.688;2022-12-07T07:20:38;101377.72;;;11.92;79.68
73220;BME280;61434;43.538;-5.688;2022-12-07T07:23:04;101377.13;;;11.88;79.33
73220;BME280;61434;43.538;-5.688;2022-12-07T07:25:30;101385.72;;;11.93;79.38
73220;BME280;61434;43.538;-5.688;2022-12-07T07:27:56;101384.97;;;11.91;78.68
73220;BME280;61434;43.538;-5.688;2022-12-07T07:30:21;101391.72;;;11.86;79.08
73220;BME280;61434;43.538;-5.688;2022-12-07T07:32:47;101394.19;;;11.89;79.21
73220;BME280;61434;43.538;-5.688;2022-12-07T07:35:12;101400.50;;;11.76;79.39
73220;BME280;61434;43.538;-5.688;2022-12-07T07:37:39;101397.13;;;11.86;79.43
73220;BME280;61434;43.538;-5.688;2022-12-07T07:40:05;101396.25;;;11.96;79.20
73220;BME280;61434;43.538;-5.688;2022-12-07T07:42:31;101393.56;;;12.07;78.21
73220;BME280;61434;43.538;-5.688;2022-12-07T07:44:56;101398.69;;;12.11;78.01
73220;BME280;61434;43.538;-5.688;2022-12-07T07:47:22;101410.13;;;11.92;78.16
73220;BME280;61434;43.538;-5.688;2022-12-07T07:49:47;101406.94;;;11.98;77.92
73220;BME280;61434;43.538;-5.688;2022-12-07T07:52:13;101403.50;;;11.96;78.15
73220;BME280;61434;43.538;-5.688;2022-12-07T07:54:38;101399.81;;;12.08;77.91
73220;BME280;61434;43.538;-5.688;2022-12-07T07:57:04;101399.69;;;12.10;77.49
73220;BME280;61434;43.538;-5.688;2022-12-07T07:59:29;101403.00;;;12.13;77.88
73220;BME280;61434;43.538;-5.688;2022-12-07T08:01:55;101401.53;;;12.09;77.86
73220;BME280;61434;43.538;-5.688;2022-12-07T08:04:20;101400.78;;;12.18;77.37
73220;BME280;61434;43.538;-5.688;2022-12-07T08:06:46;101403.34;;;12.20;76.76
73220;BME280;61434;43.538;-5.688;2022-12-07T08:09:11;101410.84;;;12.05;76.96
73220;BME280;61434;43.538;-5.688;2022-12-07T08:11:37;101405.69;;;12.02;77.42
73220;BME280;61434;43.538;-5.688;2022-12-07T08:14:02;101420.91;;;11.92;78.18
73220;BME280;61434;43.538;-5.688;2022-12-07T08:16:28;101415.63;;;12.01;77.72
73220;BME280;61434;43.538;-5.688;2022-12-07T08:18:53;101412.94;;;12.01;78.04
73220;BME280;61434;43.538;-5.688;2022-12-07T08:21:19;101413.06;;;12.00;78.18
73220;BME280;61434;43.538;-5.688;2022-12-07T08:23:45;101407.16;;;12.06;77.45
73220;BME280;61434;43.538;-5.688;2022-12-07T08:26:13;101407.06;;;12.07;77.29
73220;BME280;61434;43.538;-5.688;2022-12-07T08:28:39;101417.34;;;11.80;78.09
73220;BME280;61434;43.538;-5.688;2022-12-07T08:31:14;101408.88;;;11.96;78.94
73220;BME280;61434;43.538;-5.688;2022-12-07T08:33:41;101409.44;;;12.44;77.94
73220;BME280;61434;43.538;-5.688;2022-12-07T08:36:09;101408.50;;;12.23;77.16
73220;BME280;61434;43.538;-5.688;2022-12-07T08:38:36;101416.09;;;12.29;77.41
73220;BME280;61434;43.538;-5.688;2022-12-07T08:41:03;101413.00;;;12.56;77.58
73220;BME280;61434;43.538;-5.688;2022-12-07T08:43:28;101408.50;;;12.23;77.38
73220;BME280;61434;43.538;-5.688;2022-12-07T08:47:02;101401.97;;;12.25;76.65
73220;BME280;61434;43.538;-5.688;2022-12-07T08:49:04;101406.41;;;12.38;76.68
73220;BME280;61434;43.538;-5.688;2022-12-07T08:51:31;101398.44;;;12.36;76.54
73220;BME280;61434;43.538;-5.688;2022-12-07T08:53:58;101402.84;;;12.26;76.64
73220;BME280;61434;43.538;-5.688;2022-12-07T08:56:26;101398.44;;;12.25;77.06
73220;BME280;61434;43.538;-5.688;2022-12-07T08:58:52;101392.06;;;12.15;77.22
73220;BME280;61434;43.538;-5.688;2022-12-07T09:01:18;101394.91;;;12.13;77.59
73220;BME280;61434;43.538;-5.688;2022-12-07T09:03:43;101390.81;;;12.30;77.57
73220;BME280;61434;43.538;-5.688;2022-12-07T09:06:09;101393.78;;;12.27;77.61
73220;BME280;61434;43.538;-5.688;2022-12-07T09:08:39;101385.50;;;12.40;77.00
73220;BME280;61434;43.538;-5.688;2022-12-07T09:11:06;101393.94;;;12.57;76.32
73220;BME280;61434;43.538;-5.688;2022-12-07T09:13:31;101404.59;;;12.59;76.27
73220;BME280;61434;43.538;-5.688;2022-12-07T09:15:57;101409.28;;;12.57;76.06
73220;BME280;61434;43.538;-5.688;2022-12-07T09:18:23;101418.88;;;12.50;75.73
73220;BME280;61434;43.538;-5.688;2022-12-07T09:20:50;101420.13;;;12.46;76.83
73220;BME280;61434;43.538;-5.688;2022-12-07T09:23:15;101412.53;;;12.40;76.44
73220;BME280;61434;43.538;-5.688;2022-12-07T09:25:41;101408.00;;;12.72;76.88
73220;BME280;61434;43.538;-5.688;2022-12-07T09:28:06;101404.00;;;12.88;75.88
73220;BME280;61434;43.538;-5.688;2022-12-07T09:30:32;61621.03;;;-144.32;100.00
73220;BME280;61434;43.538;-5.688;2022-12-07T09:32:57;61621.03;;;-144.32;100.00
73220;BME280;61434;43.538;-5.688;2022-12-07T09:35:24;61621.03;;;-144.32;100.00
73220;BME280;61434;43.538;-5.688;2022-12-07T09:37:50;61621.03;;;-144.32;100.00
73220;BME280;61434;43.538;-5.688;2022-12-07T09:40:17;61621.03;;;-144.32;100.00
73220;BME280;61434;43.538;-5.688;2022-12-07T09:42:47;61621.03;;;-144.32;100.00
73220;BME280;61434;43.538;-5.688;2022-12-07T09:45:37;61621.03;;;-144.32;100.00
73220;BME280;61434;43.538;-5.688;2022-12-07T09:48:03;61621.03;;;-144.32;100.00
73220;BME280;61434;43.538;-5.688;2022-12-07T09:50:30;61621.03;;;-144.32;100.00
73220;BME280;61434;43.538;-5.688;2022-12-07T09:53:12;61621.03;;;-144.32;100.00
73220;BME280;61434;43.538;-5.688;2022-12-07T09:55:40;61621.03;;;-144.32;100.00
73220;BME280;61434;43.538;-5.688;2022-12-07T09:58:12;61621.03;;;-144.32;100.00
73220;BME280;61434;43.538;-5.688;2022-12-07T10:00:43;61621.03;;;-144.32;100.00
73220;BME280;61434;43.538;-5.688;2022-12-07T10:03:11;61621.03;;;-144.32;100.00
73220;BME280;61434;43.538;-5.688;2022-12-07T10:05:40;61621.03;;;-144.32;100.00
73220;BME280;61434;43.538;-5.688;2022-12-07T10:08:10;61621.03;;;-144.32;100.00
73220;BME280;61434;43.538;-5.688;2022-12-07T10:10:36;61621.03;;;-144.32;100.00
73220;BME280;61434;43.538;-5.688;2022-12-07T10:18:33;61621.03;;;-144.32;100.00
73220;BME280;61434;43.538;-5.688;2022-12-07T10:23:58;61621.03;;;-144.32;100.00
73220;BME280;61434;43.538;-5.688;2022-12-07T10:31:43;61621.03;;;-144.32;100.00
73220;BME280;61434;43.538;-5.688;2022-12-07T10:34:23;61621.03;;;-144.32;100.00
73220;BME280;61434;43.538;-5.688;2022-12-07T10:36:53;61621.03;;;-144.32;100.00
73220;BME280;61434;43.538;-5.688;2022-12-07T10:39:22;61621.03;;;-144.32;100.00
73220;BME280;61434;43.538;-5.688;2022-12-07T10:42:02;61621.03;;;-144.32;100.00
73220;BME280;61434;43.538;-5.688;2022-12-07T10:44:32;61621.03;;;-144.32;100.00
73220;BME280;61434;43.538;-5.688;2022-12-07T10:53:12;61621.03;;;-144.32;100.00
73220;BME280;61434;43.538;-5.688;2022-12-07T10:58:51;61621.03;;;-144.32;100.00
73220;BME280;61434;43.538;-5.688;2022-12-07T11:07:04;61621.03;;;-144.32;100.00
73220;BME280;61434;43.538;-5.688;2022-12-07T11:12:54;61621.03;;;-144.32;100.00
73220;BME280;61434;43.538;-5.688;2022-12-07T11:18:26;61621.03;;;-144.32;100.00
73220;BME280;61434;43.538;-5.688;2022-12-07T11:37:29;61621.03;;;-144.32;100.00
73220;BME280;61434;43.538;-5.688;2022-12-07T11:40:02;61621.03;;;-144.32;100.00
73220;BME280;61434;43.538;-5.688;2022-12-07T11:42:33;61621.03;;;-144.32;100.00
73220;BME280;61434;43.538;-5.688;2022-12-07T11:45:26;61621.03;;;-144.32;100.00
73220;BME280;61434;43.538;-5.688;2022-12-07T11:50:42;61621.03;;;-144.32;100.00
73220;BME280;61434;43.538;-5.688;2022-12-07T11:53:51;61621.03;;;-144.32;100.00
73220;BME280;61434;43.538;-5.688;2022-12-07T11:56:20;61621.03;;;-144.32;100.00
73220;BME280;61434;43.538;-5.688;2022-12-07T11:59:00;61621.03;;;-144.32;100.00
73220;BME280;61434;43.538;-5.688;2022-12-07T12:06:41;61621.03;;;-144.32;100.00
73220;BME280;61434;43.538;-5.688;2022-12-07T12:15:03;61621.03;;;-144.32;100.00
73220;BME280;61434;43.538;-5.688;2022-12-07T12:17:47;61621.03;;;-144.32;100.00
73220;BME280;61434;43.538;-5.688;2022-12-07T12:22:55;61621.03;;;-144.32;100.00
73220;BME280;61434;43.538;-5.688;2022-12-07T12:25:30;61621.03;;;-144.32;100.00
73220;BME280;61434;43.538;-5.688;2022-12-07T12:27:58;61621.03;;;-144.32;100.00
73220;BME280;61434;43.538;-5.688;2022-12-07T12:30:39;61621.03;;;-144.32;100.00
73220;BME280;61434;43.538;-5.688;2022-12-07T12:33:13;61621.03;;;-144.32;100.00
73220;BME280;61434;43.538;-5.688;2022-12-07T12:35:40;61621.03;;;-144.32;100.00
73220;BME280;61434;43.538;-5.688;2022-12-07T12:38:29;61621.03;;;-144.32;100.00
73220;BME280;61434;43.538;-5.688;2022-12-07T12:40:56;61621.03;;;-144.32;100.00
73220;BME280;61434;43.538;-5.688;2022-12-07T12:48:55;61621.03;;;-144.32;100.00
73220;BME280;61434;43.538;-5.688;2022-12-07T12:51:40;61621.03;;;-144.32;100.00
73220;BME280;61434;43.538;-5.688;2022-12-07T12:54:15;61621.03;;;-144.32;100.00
73220;BME280;61434;43.538;-5.688;2022-12-07T12:56:52;61621.03;;;-144.32;100.00
73220;BME280;61434;43.538;-5.688;2022-12-07T13:01:47;61621.03;;;-144.32;100.00
73220;BME280;61434;43.538;-5.688;2022-12-07T13:04:17;61621.03;;;-144.32;100.00
73220;BME280;61434;43.538;-5.688;2022-12-07T13:06:46;61621.03;;;-144.32;100.00
73220;BME280;61434;43.538;-5.688;2022-12-07T13:09:30;61621.03;;;-144.32;100.00
73220;BME280;61434;43.538;-5.688;2022-12-07T13:12:04;61621.03;;;-144.32;100.00
73220;BME280;61434;43.538;-5.688;2022-12-07T13:20:00;61621.03;;;-144.32;100.00
73220;BME280;61434;43.538;-5.688;2022-12-07T13:27:41;61621.03;;;-144.32;100.00
73220;BME280;61434;43.538;-5.688;2022-12-07T13:30:14;61621.03;;;-144.32;100.00
73220;BME280;61434;43.538;-5.688;2022-12-07T13:32:40;101121.63;;;17.08;69.13
73220;BME280;61434;43.538;-5.688;2022-12-07T13:35:28;61621.03;;;-144.32;100.00
73220;BME280;61434;43.538;-5.688;2022-12-07T13:37:54;101118.94;;;17.16;68.02
73220;BME280;61434;43.538;-5.688;2022-12-07T13:40:21;101120.03;;;16.71;70.42
73220;BME280;61434;43.538;-5.688;2022-12-07T13:42:47;61621.03;;;-144.32;100.00
73220;BME280;61434;43.538;-5.688;2022-12-07T13:45:25;61621.03;;;-144.32;100.00
73220;BME280;61434;43.538;-5.688;2022-12-07T13:48:32;61621.03;;;-144.32;100.00
73220;BME280;61434;43.538;-5.688;2022-12-07T13:51:00;61621.03;;;-144.32;100.00
73220;BME280;61434;43.538;-5.688;2022-12-07T13:53:26;61621.03;;;-144.32;100.00
73220;BME280;61434;43.538;-5.688;2022-12-07T13:56:00;61621.03;;;-144.32;100.00
73220;BME280;61434;43.538;-5.688;2022-12-07T13:58:27;61621.03;;;-144.32;100.00
73220;BME280;61434;43.538;-5.688;2022-12-07T14:00:55;61621.03;;;-144.32;100.00
73220;BME280;61434;43.538;-5.688;2022-12-07T14:03:31;61621.03;;;-144.32;100.00
73220;BME280;61434;43.538;-5.688;2022-12-07T14:06:25;61621.03;;;-144.32;100.00
73220;BME280;61434;43.538;-5.688;2022-12-07T14:09:24;101080.00;;;17.24;67.21
73220;BME280;61434;43.538;-5.688;2022-12-07T14:11:54;101083.13;;;16.95;68.42
73220;BME280;61434;43.538;-5.688;2022-12-07T14:14:23;101078.53;;;16.87;68.96
73220;BME280;61434;43.538;-5.688;2022-12-07T14:22:22;61621.03;;;-144.32;100.00
73220;BME280;61434;43.538;-5.688;2022-12-07T14:24:48;101072.72;;;16.56;70.64
73220;BME280;61434;43.538;-5.688;2022-12-07T14:27:22;61621.03;;;-144.32;100.00
73220;BME280;61434;43.538;-5.688;2022-12-07T14:29:48;61621.03;;;-144.32;100.00
73220;BME280;61434;43.538;-5.688;2022-12-07T14:32:21;101067.56;;;16.53;69.49
73220;BME280;61434;43.538;-5.688;2022-12-07T14:34:57;101067.56;;;16.53;69.49
73220;BME280;61434;43.538;-5.688;2022-12-07T14:37:24;101045.09;;;16.42;70.95
73220;BME280;61434;43.538;-5.688;2022-12-07T14:39:50;61621.03;;;-144.32;100.00
73220;BME280;61434;43.538;-5.688;2022-12-07T14:42:16;61621.03;;;-144.32;100.00
73220;BME280;61434;43.538;-5.688;2022-12-07T14:44:42;61621.03;;;-144.32;100.00
73220;BME280;61434;43.538;-5.688;2022-12-07T14:47:10;61621.03;;;-144.32;100.00
73220;BME280;61434;43.538;-5.688;2022-12-07T14:49:36;61621.03;;;-144.32;100.00